createdAt,value
2018-12-20T00:02:01.201Z,17.10
2018-12-20T00:04:32.449Z,20.40
2018-12-20T00:07:03.497Z,18.67
2018-12-20T00:09:34.757Z,18.63
2018-12-20T00:12:08.547Z,19.90
2018-12-20T00:14:39.648Z,17.23
2018-12-20T00:17:15.307Z,15.97
2018-12-20T00:19:46.289Z,16.73
2018-12-20T00:22:17.497Z,16.10
2018-12-20T00:24:48.573Z,14.27
2018-12-20T00:27:20.094Z,16.17
2018-12-20T00:29:51.041Z,14.30
2018-12-20T00:32:22.259Z,14.07
2018-12-20T00:34:53.439Z,13.40
2018-12-20T00:37:24.809Z,13.70
2018-12-20T00:39:55.585Z,13.73
2018-12-20T00:42:26.669Z,11.77
2018-12-20T00:44:57.586Z,14.00
2018-12-20T00:47:28.632Z,12.90
2018-12-20T00:49:59.514Z,12.83
2018-12-20T00:52:30.482Z,12.53
2018-12-20T00:55:01.514Z,13.33
2018-12-20T00:57:32.480Z,12.27
2018-12-20T01:00:04.368Z,12.83
2018-12-20T01:02:35.238Z,12.47
2018-12-20T01:05:06.490Z,12.10
2018-12-20T01:07:37.405Z,12.77
2018-12-20T01:10:08.822Z,10.57
2018-12-20T01:12:40.105Z,10.73
2018-12-20T01:15:12.266Z,10.23
2018-12-20T01:17:43.165Z,11.00
2018-12-20T01:20:14.361Z,10.10
2018-12-20T01:22:45.331Z,9.50
2018-12-20T01:25:16.019Z,9.37
2018-12-20T01:27:47.197Z,9.57
2018-12-20T01:30:18.194Z,10.27
2018-12-20T01:32:49.062Z,9.20
2018-12-20T01:35:20.034Z,8.77
2018-12-20T01:37:50.865Z,10.27
2018-12-20T01:40:21.791Z,10.17
2018-12-20T01:42:52.727Z,10.30
2018-12-20T01:45:23.745Z,10.83
2018-12-20T01:47:54.864Z,9.53
2018-12-20T01:50:25.941Z,11.40
2018-12-20T01:52:56.945Z,11.37
2018-12-20T01:55:28.699Z,11.57
2018-12-20T01:57:59.860Z,11.73
2018-12-20T02:00:30.947Z,11.63
2018-12-20T02:03:01.700Z,11.13
2018-12-20T02:05:33.358Z,10.93
2018-12-20T02:08:05.121Z,10.63
2018-12-20T02:10:35.953Z,10.60
2018-12-20T02:13:07.061Z,10.47
2018-12-20T02:15:38.015Z,9.07
2018-12-20T02:18:08.988Z,9.67
2018-12-20T02:20:40.000Z,10.97
2018-12-20T02:23:11.030Z,11.27
2018-12-20T02:25:42.746Z,11.10
2018-12-20T02:28:14.075Z,11.17
2018-12-20T02:30:45.672Z,11.47
2018-12-20T02:33:17.406Z,11.50
2018-12-20T02:35:49.064Z,12.10
2018-12-20T02:38:19.937Z,12.73
2018-12-20T02:40:51.611Z,11.67
2018-12-20T02:43:22.648Z,12.83
2018-12-20T02:45:54.682Z,12.27
2018-12-20T02:48:25.651Z,13.87
2018-12-20T02:50:56.591Z,14.77
2018-12-20T02:53:27.413Z,13.53
2018-12-20T02:55:58.570Z,13.57
2018-12-20T02:58:29.763Z,13.47
2018-12-20T03:01:00.626Z,14.93
2018-12-20T03:03:31.281Z,14.07
2018-12-20T03:06:02.261Z,13.33
2018-12-20T03:08:33.071Z,13.97
2018-12-20T03:11:04.428Z,14.87
2018-12-20T03:13:35.278Z,14.77
2018-12-20T03:16:06.245Z,14.17
2018-12-20T03:18:36.948Z,14.97
2018-12-20T03:21:08.403Z,14.70
2018-12-20T03:23:39.285Z,14.17
2018-12-20T03:26:10.317Z,14.30
2018-12-20T03:28:41.308Z,14.20
2018-12-20T03:31:12.662Z,14.07
2018-12-20T03:33:44.003Z,14.60
2018-12-20T03:36:15.127Z,14.63
2018-12-20T03:38:46.074Z,14.10
2018-12-20T03:41:16.971Z,13.03
2018-12-20T03:43:47.910Z,13.13
2018-12-20T03:46:18.918Z,12.87
2018-12-20T03:48:50.157Z,14.43
2018-12-20T03:51:20.745Z,13.70
2018-12-20T03:53:51.630Z,14.83
2018-12-20T03:56:22.988Z,14.43
2018-12-20T03:58:53.809Z,13.67
2018-12-20T04:01:24.673Z,13.33
2018-12-20T04:03:56.160Z,12.33
2018-12-20T04:06:27.061Z,11.47
2018-12-20T04:08:58.054Z,11.80
2018-12-20T04:11:28.867Z,12.03
2018-12-20T04:13:59.444Z,12.00
2018-12-20T04:16:30.247Z,11.07
2018-12-20T04:19:01.200Z,11.37
2018-12-20T04:21:36.179Z,11.07
2018-12-20T04:24:07.389Z,12.03
2018-12-20T04:26:40.383Z,12.27
2018-12-20T04:29:11.804Z,11.20
2018-12-20T04:31:45.786Z,11.67
2018-12-20T04:34:17.171Z,16.87
2018-12-20T04:36:49.243Z,16.37
2018-12-20T04:39:22.087Z,19.97
2018-12-20T04:41:53.116Z,17.67
2018-12-20T04:44:24.812Z,13.37
2018-12-20T04:46:59.612Z,12.77
2018-12-20T04:49:31.837Z,12.73
2018-12-20T04:52:03.715Z,12.30
2018-12-20T04:54:34.544Z,11.73
2018-12-20T04:57:06.068Z,12.13
2018-12-20T04:59:37.959Z,11.03
2018-12-20T05:02:09.841Z,11.50
2018-12-20T05:04:45.552Z,10.97
2018-12-20T05:07:17.074Z,11.17
2018-12-20T05:09:48.783Z,11.50
2018-12-20T05:12:21.118Z,10.53
2018-12-20T05:14:53.242Z,11.33
2018-12-20T05:17:25.078Z,10.27
2018-12-20T05:19:56.636Z,10.97
2018-12-20T05:22:29.183Z,11.53
2018-12-20T05:25:01.885Z,11.07
2018-12-20T05:27:33.135Z,10.87
2018-12-20T05:30:04.399Z,11.00
2018-12-20T05:32:36.975Z,10.23
2018-12-20T05:35:08.368Z,10.30
2018-12-20T05:37:40.738Z,11.17
2018-12-20T05:40:11.973Z,11.53
2018-12-20T05:42:42.996Z,11.80
2018-12-20T05:45:15.322Z,10.40
2018-12-20T05:47:49.060Z,10.63
2018-12-20T05:50:22.217Z,11.07
2018-12-20T05:52:54.137Z,10.77
2018-12-20T05:55:25.683Z,9.43
2018-12-20T06:00:39.918Z,9.40
2018-12-20T06:03:10.926Z,11.10
2018-12-20T06:05:41.974Z,10.00
2018-12-20T06:08:12.893Z,13.70
2018-12-20T06:10:43.752Z,13.90
2018-12-20T06:13:14.699Z,11.77
2018-12-20T06:15:45.813Z,12.07
2018-12-20T06:18:16.859Z,11.80
2018-12-20T06:20:48.725Z,11.67
2018-12-20T06:23:19.339Z,12.80
2018-12-20T06:25:51.103Z,17.03
2018-12-20T06:28:22.295Z,15.03
2018-12-20T06:30:53.418Z,21.03
2018-12-20T06:33:24.414Z,18.50
2018-12-20T06:35:55.225Z,13.33
2018-12-20T06:38:25.976Z,12.10
2018-12-20T06:40:56.669Z,13.90
2018-12-20T06:43:27.490Z,12.97
2018-12-20T06:45:58.252Z,12.97
2018-12-20T06:48:29.264Z,12.03
2018-12-20T06:51:00.281Z,13.20
2018-12-20T06:53:31.039Z,13.93
2018-12-20T06:56:03.226Z,13.73
2018-12-20T06:58:34.139Z,18.23
2018-12-20T07:01:05.068Z,14.07
2018-12-20T07:03:36.531Z,13.20
2018-12-20T07:06:07.355Z,11.97
2018-12-20T07:08:38.649Z,12.30
2018-12-20T07:11:09.711Z,16.03
2018-12-20T07:13:40.808Z,15.53
2018-12-20T07:16:11.504Z,13.40
2018-12-20T07:18:42.371Z,13.37
2018-12-20T07:21:13.233Z,14.80
2018-12-20T07:23:44.834Z,14.07
2018-12-20T07:26:16.303Z,14.37
2018-12-20T07:28:47.175Z,15.00
2018-12-20T07:31:18.554Z,13.90
2018-12-20T07:33:49.766Z,44.33
2018-12-20T07:36:21.164Z,15.87
2018-12-20T07:38:52.088Z,15.67
2018-12-20T07:41:23.090Z,15.63
2018-12-20T07:43:54.307Z,15.60
2018-12-20T07:46:25.646Z,16.63
2018-12-20T07:48:56.853Z,16.73
2018-12-20T07:51:28.586Z,17.73
2018-12-20T07:53:59.741Z,17.23
2018-12-20T07:56:31.000Z,18.50
2018-12-20T07:59:02.386Z,17.73
2018-12-20T08:01:33.806Z,15.00
2018-12-20T08:04:05.042Z,14.97
2018-12-20T08:06:36.283Z,15.77
2018-12-20T08:09:10.001Z,19.07
2018-12-20T08:11:41.148Z,14.60
2018-12-20T08:14:12.475Z,14.20
2018-12-20T08:16:46.424Z,13.43
2018-12-20T08:19:19.756Z,12.13
2018-12-20T08:21:56.384Z,12.97
2018-12-20T08:24:31.158Z,10.57
2018-12-20T08:27:05.748Z,12.53
2018-12-20T08:29:36.979Z,14.00
2018-12-20T08:32:10.389Z,15.57
2018-12-20T08:34:43.089Z,14.63
2018-12-20T08:37:15.289Z,19.67
2018-12-20T08:39:46.892Z,19.33
2018-12-20T08:42:18.972Z,23.20
2018-12-20T08:44:50.820Z,22.20
2018-12-20T08:47:22.259Z,61.97
2018-12-20T08:49:54.696Z,13.70
2018-12-20T08:52:29.265Z,12.77
2018-12-20T08:55:02.623Z,11.63
2018-12-20T08:57:34.367Z,11.53
2018-12-20T09:00:07.601Z,10.73
2018-12-20T09:02:39.803Z,11.50
2018-12-20T09:05:11.303Z,12.47
2018-12-20T09:07:42.618Z,8.93
2018-12-20T09:10:14.416Z,12.50
2018-12-20T09:12:45.775Z,10.47
2018-12-20T09:15:18.011Z,8.90
2018-12-20T09:17:51.513Z,13.30
2018-12-20T09:20:32.537Z,18.90
2018-12-20T09:22:58.601Z,10.60
2018-12-20T09:25:30.875Z,10.40
2018-12-20T09:28:03.140Z,8.93
2018-12-20T09:30:35.717Z,10.07
2018-12-20T09:33:08.643Z,10.03
2018-12-20T09:35:40.572Z,9.93
2018-12-20T09:38:11.378Z,10.50
2018-12-20T09:40:42.881Z,7.90
2018-12-20T09:43:16.106Z,8.93
2018-12-20T09:45:48.517Z,8.87
2018-12-20T09:48:23.194Z,10.33
2018-12-20T09:50:55.516Z,10.40
2018-12-20T09:53:28.948Z,9.10
2018-12-20T09:56:00.318Z,11.33
2018-12-20T09:58:34.569Z,13.67
2018-12-20T10:01:07.306Z,13.07
2018-12-20T10:03:40.541Z,12.50
2018-12-20T10:06:13.742Z,11.63
2018-12-20T10:08:48.068Z,12.20
2018-12-20T10:11:21.002Z,9.27
2018-12-20T10:13:54.131Z,33.47
2018-12-20T10:16:26.181Z,32.27
2018-12-20T10:18:58.553Z,22.03
2018-12-20T10:21:34.654Z,23.13
2018-12-20T10:24:07.170Z,18.27
2018-12-20T10:26:39.157Z,11.13
2018-12-20T10:29:12.623Z,10.53
2018-12-20T10:31:44.704Z,11.80
2018-12-20T10:34:17.188Z,15.30
2018-12-20T10:36:49.809Z,13.17
2018-12-20T10:39:23.889Z,12.87
2018-12-20T10:41:57.702Z,12.03
2018-12-20T10:44:33.051Z,11.63
2018-12-20T10:47:09.988Z,11.33
2018-12-20T10:49:44.979Z,12.23
2018-12-20T10:52:16.643Z,13.10
2018-12-20T10:54:49.902Z,12.63
2018-12-20T10:57:22.521Z,13.17
2018-12-20T10:59:57.632Z,16.47
2018-12-20T11:02:35.145Z,23.13
2018-12-20T11:05:13.003Z,17.90
2018-12-20T11:07:50.128Z,26.07
2018-12-20T11:10:27.344Z,23.63
2018-12-20T11:13:00.991Z,16.47
2018-12-20T11:15:33.342Z,15.97
2018-12-20T11:18:07.097Z,18.07
2018-12-20T11:20:39.409Z,18.97
2018-12-20T11:23:11.468Z,20.37
2018-12-20T11:25:42.436Z,31.33
2018-12-20T11:28:15.712Z,18.77
2018-12-20T11:30:48.836Z,21.03
2018-12-20T11:35:56.810Z,19.83
2018-12-20T11:38:29.303Z,18.73
2018-12-20T11:41:01.802Z,14.70
2018-12-20T11:43:34.696Z,14.30
2018-12-20T11:46:06.147Z,16.47
2018-12-20T11:48:39.749Z,12.23
2018-12-20T11:51:12.353Z,10.87
2018-12-20T11:53:43.993Z,8.90
2018-12-20T11:56:17.040Z,9.80
2018-12-20T11:58:50.518Z,9.83
2018-12-20T12:01:23.300Z,9.70
2018-12-20T12:03:57.516Z,8.43
2018-12-20T12:06:28.927Z,14.27
2018-12-20T12:09:02.105Z,8.70
2018-12-20T12:11:33.900Z,7.83
2018-12-20T12:14:06.619Z,6.70
2018-12-20T12:16:38.814Z,7.90
2018-12-20T12:19:10.988Z,6.80
2018-12-20T12:21:42.686Z,7.40
2018-12-20T12:24:16.370Z,9.27
2018-12-20T12:26:50.144Z,7.43
2018-12-20T12:29:24.938Z,7.93
2018-12-20T12:31:56.361Z,7.03
2018-12-20T12:34:29.542Z,5.80
2018-12-20T12:37:05.497Z,8.70
2018-12-20T12:39:36.832Z,9.67
2018-12-20T12:42:09.041Z,6.77
2018-12-20T12:44:40.305Z,8.63
2018-12-20T12:47:12.449Z,10.40
2018-12-20T12:49:43.807Z,9.47
2018-12-20T12:52:15.818Z,7.03
2018-12-20T12:54:53.815Z,38.07
2018-12-20T12:57:25.712Z,7.23
2018-12-20T12:59:58.170Z,5.90
2018-12-20T13:02:32.453Z,5.47
2018-12-20T13:05:04.709Z,7.67
2018-12-20T13:07:37.639Z,10.30
2018-12-20T13:10:10.265Z,16.90
2018-12-20T13:12:42.898Z,5.90
2018-12-20T13:15:14.097Z,6.57
2018-12-20T13:17:46.600Z,10.53
2018-12-20T13:20:19.692Z,7.77
2018-12-20T13:22:52.207Z,7.23
2018-12-20T13:25:24.246Z,8.30
2018-12-20T13:27:57.236Z,7.90
2018-12-20T13:30:29.816Z,6.50
2018-12-20T13:33:02.032Z,9.20
2018-12-20T13:35:34.757Z,6.53
2018-12-20T13:38:10.621Z,9.43
2018-12-20T13:40:45.818Z,8.73
2018-12-20T13:43:18.721Z,8.20
2018-12-20T13:45:50.169Z,7.13
2018-12-20T13:48:22.324Z,13.30
2018-12-20T13:50:57.428Z,6.50
2018-12-20T13:53:29.935Z,43.70
2018-12-20T13:56:02.020Z,46.07
2018-12-20T13:58:35.112Z,25.13
2018-12-20T14:01:07.047Z,10.57
2018-12-20T14:03:39.542Z,43.33
2018-12-20T14:06:11.501Z,10.77
2018-12-20T14:08:43.748Z,15.13
2018-12-20T14:11:16.327Z,8.20
2018-12-20T14:13:50.441Z,9.23
2018-12-20T14:16:24.659Z,27.53
2018-12-20T14:18:56.985Z,18.47
2018-12-20T14:21:32.020Z,9.47
2018-12-20T14:24:04.529Z,32.27
2018-12-20T14:26:37.876Z,8.60
2018-12-20T14:29:09.873Z,8.73
2018-12-20T14:31:42.325Z,8.20
2018-12-20T14:34:17.305Z,17.90
2018-12-20T14:36:50.438Z,7.87
2018-12-20T14:39:23.257Z,8.27
2018-12-20T14:41:56.248Z,8.63
2018-12-20T14:44:28.294Z,8.70
2018-12-20T14:46:59.507Z,9.17
2018-12-20T14:49:33.027Z,22.23
2018-12-20T14:52:05.464Z,10.53
2018-12-20T14:54:38.453Z,11.83
2018-12-20T14:57:12.193Z,66.13
2018-12-20T14:59:45.383Z,31.60
2018-12-20T15:02:18.257Z,20.13
2018-12-20T15:04:50.440Z,81.53
2018-12-20T15:07:22.258Z,28.30
2018-12-20T15:09:54.985Z,16.03
2018-12-20T15:12:27.502Z,11.27
2018-12-20T15:14:59.292Z,14.93
2018-12-20T15:17:32.497Z,15.27
2018-12-20T15:20:04.814Z,14.93
2018-12-20T15:22:37.743Z,14.90
2018-12-20T15:25:10.957Z,17.93
2018-12-20T15:27:44.446Z,13.30
2018-12-20T15:30:16.425Z,12.90
2018-12-20T15:32:56.165Z,11.93
2018-12-20T15:35:30.361Z,10.83
2018-12-20T15:38:03.723Z,12.57
2018-12-20T15:40:37.266Z,12.10
2018-12-20T15:43:09.055Z,17.03
2018-12-20T15:45:40.811Z,21.50
2018-12-20T15:48:17.481Z,21.40
2018-12-20T15:53:33.689Z,15.73
2018-12-20T15:56:04.979Z,16.60
2018-12-20T15:58:36.621Z,19.67
2018-12-20T16:01:08.212Z,15.83
2018-12-20T16:03:39.428Z,27.07
2018-12-20T16:06:10.630Z,30.20
2018-12-20T16:08:41.688Z,35.43
2018-12-20T16:11:13.958Z,35.53
2018-12-20T16:13:46.782Z,35.13
2018-12-20T16:16:18.321Z,25.77
2018-12-20T16:18:49.787Z,43.13
2018-12-20T16:21:21.646Z,34.53
2018-12-20T16:23:52.987Z,19.10
2018-12-20T16:26:23.868Z,16.27
2018-12-20T16:28:55.443Z,15.10
2018-12-20T16:31:26.715Z,20.17
2018-12-20T16:33:57.984Z,18.10
2018-12-20T16:36:30.453Z,16.00
2018-12-20T16:39:02.559Z,19.07
2018-12-20T16:41:34.852Z,26.57
2018-12-20T16:44:07.034Z,27.17
2018-12-20T16:46:39.029Z,31.97
2018-12-20T16:49:13.763Z,28.50
2018-12-20T16:51:44.177Z,31.17
2018-12-20T16:54:17.061Z,42.83
2018-12-20T16:56:48.982Z,30.33
2018-12-20T16:59:21.603Z,28.87
2018-12-20T17:01:52.864Z,39.30
2018-12-20T17:04:26.763Z,35.90
2018-12-20T17:06:58.273Z,35.90
2018-12-20T17:09:29.818Z,33.97
2018-12-20T17:12:01.001Z,33.97
2018-12-20T17:14:32.300Z,35.23
2018-12-20T17:17:03.704Z,35.07
2018-12-20T17:19:35.763Z,40.53
2018-12-20T17:22:08.436Z,41.13
2018-12-20T17:24:40.434Z,37.83
2018-12-20T17:27:12.127Z,38.43
2018-12-20T17:29:43.734Z,36.47
2018-12-20T17:32:17.497Z,48.10
2018-12-20T17:34:49.252Z,79.80
2018-12-20T17:37:20.779Z,54.80
2018-12-20T17:39:53.271Z,50.67
2018-12-20T17:42:24.855Z,50.87
2018-12-20T17:44:56.807Z,44.17
2018-12-20T17:47:28.357Z,47.67
2018-12-20T17:50:00.434Z,61.43
2018-12-20T17:52:32.195Z,80.67
2018-12-20T17:55:04.471Z,76.93
2018-12-20T17:57:36.281Z,93.03
2018-12-20T18:00:10.495Z,51.03
2018-12-20T18:02:41.793Z,47.63
2018-12-20T18:05:13.527Z,44.40
2018-12-20T18:07:45.179Z,34.90
2018-12-20T18:10:16.714Z,33.67
2018-12-20T18:12:49.112Z,42.30
2018-12-20T18:15:20.551Z,41.07
2018-12-20T18:17:52.850Z,40.47
2018-12-20T18:20:24.159Z,50.40
2018-12-20T18:22:56.511Z,61.53
2018-12-20T18:25:28.116Z,56.23
2018-12-20T18:27:59.655Z,42.93
2018-12-20T18:30:30.656Z,35.03
2018-12-20T18:33:02.273Z,33.33
2018-12-20T18:35:33.649Z,33.20
2018-12-20T18:38:05.428Z,31.03
2018-12-20T18:40:37.345Z,31.00
2018-12-20T18:43:09.557Z,34.43
2018-12-20T18:45:42.252Z,28.80
2018-12-20T18:48:13.749Z,42.03
2018-12-20T18:50:44.717Z,36.50
2018-12-20T18:53:16.419Z,39.53
2018-12-20T18:55:47.383Z,42.43
2018-12-20T18:58:18.666Z,48.80
2018-12-20T19:00:49.947Z,47.60
2018-12-20T19:03:21.064Z,60.20
2018-12-20T19:05:52.416Z,36.03
2018-12-20T19:08:24.015Z,52.57
2018-12-20T19:10:55.819Z,47.77
2018-12-20T19:13:27.163Z,38.83
2018-12-20T19:15:58.720Z,39.53
2018-12-20T19:18:29.600Z,43.37
2018-12-20T19:21:00.775Z,23.60
2018-12-20T19:23:31.668Z,43.47
2018-12-20T19:26:04.415Z,87.13
2018-12-20T19:28:35.922Z,35.73
2018-12-20T19:31:07.577Z,38.80
2018-12-20T19:33:38.991Z,45.87
2018-12-20T19:36:10.620Z,37.13
2018-12-20T19:38:42.164Z,49.33
2018-12-20T19:41:14.336Z,53.50
2018-12-20T19:43:45.997Z,47.93
2018-12-20T19:46:17.940Z,47.03
2018-12-20T19:48:49.296Z,39.63
2018-12-20T19:51:20.822Z,28.60
2018-12-20T19:53:53.036Z,41.43
2018-12-20T19:56:24.196Z,84.37
2018-12-20T19:58:55.853Z,87.60
2018-12-20T20:01:27.531Z,94.13
2018-12-20T20:03:59.399Z,80.27
2018-12-20T20:06:30.543Z,69.07
2018-12-20T20:09:02.584Z,84.50
2018-12-20T20:11:33.824Z,164.53
2018-12-20T20:14:05.318Z,257.43
2018-12-20T20:16:37.022Z,103.37
2018-12-20T20:19:09.218Z,125.70
2018-12-20T20:21:42.193Z,104.43
2018-12-20T20:24:14.784Z,101.33
2018-12-20T20:26:47.140Z,47.03
2018-12-20T20:29:18.938Z,57.67
2018-12-20T20:31:50.682Z,45.60
2018-12-20T20:34:23.802Z,38.17
2018-12-20T20:36:55.414Z,45.73
2018-12-20T20:39:27.674Z,48.20
2018-12-20T20:41:59.331Z,45.97
2018-12-20T20:44:32.459Z,54.07
2018-12-20T20:47:04.170Z,55.17
2018-12-20T20:49:35.794Z,71.90
2018-12-20T20:52:08.101Z,77.73
2018-12-20T20:54:41.141Z,68.83
2018-12-20T20:57:12.635Z,75.23
2018-12-20T20:59:50.801Z,69.00
2018-12-20T21:02:19.204Z,65.50
2018-12-20T21:04:50.483Z,60.83
2018-12-20T21:07:22.643Z,47.73
2018-12-20T21:09:54.030Z,46.20
2018-12-20T21:12:25.310Z,46.67
2018-12-20T21:14:56.820Z,53.23
2018-12-20T21:17:28.222Z,88.23
2018-12-20T21:19:59.633Z,82.80
2018-12-20T21:22:30.980Z,83.00
2018-12-20T21:25:02.765Z,68.53
2018-12-20T21:27:33.972Z,73.83
2018-12-20T21:30:09.889Z,57.03
2018-12-20T21:32:41.440Z,69.60
2018-12-20T21:35:12.573Z,71.73
2018-12-20T21:37:43.639Z,37.23
2018-12-20T21:40:14.833Z,53.80
2018-12-20T21:42:46.109Z,75.63
2018-12-20T21:45:17.301Z,88.27
2018-12-20T21:47:48.476Z,67.47
2018-12-20T21:50:19.970Z,49.23
2018-12-20T21:52:51.015Z,55.53
2018-12-20T21:55:22.387Z,58.10
2018-12-20T21:57:55.492Z,60.00
2018-12-20T22:00:27.419Z,53.27
2018-12-20T22:02:58.969Z,43.87
2018-12-20T22:05:30.360Z,45.83
2018-12-20T22:08:02.126Z,60.38
2018-12-20T22:10:34.583Z,55.37
2018-12-20T22:13:06.725Z,50.53
2018-12-20T22:15:38.049Z,49.03
2018-12-20T22:18:10.397Z,47.78
2018-12-20T22:20:47.238Z,49.38
2018-12-20T22:23:15.534Z,48.85
2018-12-20T22:25:47.439Z,39.90
2018-12-20T22:28:19.695Z,39.58
2018-12-20T22:30:50.905Z,49.63
2018-12-20T22:33:22.477Z,48.02
2018-12-20T22:35:54.072Z,45.83
2018-12-20T22:38:25.883Z,43.20
2018-12-20T22:40:57.605Z,55.30
2018-12-20T22:43:28.959Z,50.78
2018-12-20T22:46:00.751Z,88.00
2018-12-20T22:48:32.265Z,54.98
2018-12-20T22:51:05.480Z,43.65
2018-12-20T22:53:37.094Z,43.20
2018-12-20T22:56:11.707Z,51.05
2018-12-20T22:58:44.562Z,41.40
2018-12-20T23:01:17.150Z,59.40
2018-12-20T23:03:49.781Z,51.42
2018-12-20T23:06:21.748Z,70.72
2018-12-20T23:08:54.167Z,45.20
2018-12-20T23:11:25.755Z,39.53
2018-12-20T23:13:57.324Z,36.77
2018-12-20T23:16:28.937Z,34.05
2018-12-20T23:19:01.671Z,40.17
2018-12-20T23:21:32.907Z,33.78
2018-12-20T23:24:05.804Z,41.98
2018-12-20T23:26:36.838Z,38.02
2018-12-20T23:29:08.262Z,51.95
2018-12-20T23:31:39.237Z,43.83
2018-12-20T23:34:10.539Z,36.77
2018-12-20T23:36:41.755Z,47.85
2018-12-20T23:39:13.093Z,44.50
2018-12-20T23:41:44.147Z,25.33
2018-12-20T23:44:15.566Z,27.20
2018-12-20T23:46:46.733Z,24.70
2018-12-20T23:49:18.033Z,17.20
2018-12-20T23:51:50.076Z,21.00
2018-12-20T23:54:21.285Z,18.65
2018-12-20T23:56:52.483Z,16.45
2018-12-20T23:59:23.612Z,17.00
